Time;durP1;ratioP1;P1;durP2;ratioP2;P2;SDS_P1;SDS_P2;PMS_P1;PMS_P2;Temp;Humidity;BMP_temperature;BMP_pressure;BME280_temperature;BME280_humidity;BME280_pressure;Samples;Min_cycle;Max_cycle;Signal;HPM_P1;HPM_P2
2023/12/22 00:02:20;;;;;;;13.40;3.10;;;4.70;99.90;;;;;;5073206;28;20229;-66
2023/12/22 00:04:46;;;;;;;11.35;2.78;;;4.70;99.90;;;;;;5073839;28;20208;-66
2023/12/22 00:07:13;;;;;;;18.48;3.30;;;4.80;99.90;;;;;;5073644;28;20197;-66
2023/12/22 00:09:40;;;;;;;15.90;3.33;;;4.80;99.90;;;;;;5073786;28;20213;-65
2023/12/22 00:12:08;;;;;;;14.13;3.30;;;4.80;99.90;;;;;;5073924;28;20227;-66
2023/12/22 00:14:37;;;;;;;12.50;3.92;;;4.80;99.90;;;;;;5073891;28;20208;-66
2023/12/22 00:17:04;;;;;;;10.95;3.20;;;4.70;99.90;;;;;;5073545;28;20274;-66
2023/12/22 00:19:31;;;;;;;13.25;3.53;;;4.70;99.90;;;;;;5074661;28;20201;-66
2023/12/22 00:21:58;;;;;;;12.77;2.88;;;4.80;99.90;;;;;;5074682;28;20225;-66
2023/12/22 00:24:25;;;;;;;27.60;4.03;;;4.80;99.90;;;;;;5073744;28;20299;-66
2023/12/22 00:26:51;;;;;;;12.65;2.67;;;4.80;99.90;;;;;;5073481;28;20203;-65
2023/12/22 00:29:19;;;;;;;10.75;2.97;;;4.80;99.90;;;;;;5076840;28;20197;-66
2023/12/22 00:31:46;;;;;;;5.25;2.00;;;4.80;99.90;;;;;;5077814;28;20221;-66
2023/12/22 00:34:13;;;;;;;8.07;2.50;;;4.90;99.90;;;;;;5077595;28;20204;-65
2023/12/22 00:36:40;;;;;;;10.18;2.60;;;4.90;99.90;;;;;;5077400;28;20201;-65
2023/12/22 00:39:07;;;;;;;5.60;1.67;;;4.90;99.90;;;;;;5076961;28;20216;-65
2023/12/22 00:41:34;;;;;;;10.60;2.25;;;4.90;99.90;;;;;;5076951;28;20802;-66
2023/12/22 00:44:01;;;;;;;10.68;2.90;;;4.90;99.90;;;;;;5076891;28;20200;-65
2023/12/22 00:46:29;;;;;;;10.13;2.65;;;4.80;99.90;;;;;;5077039;28;20204;-66
2023/12/22 00:48:55;;;;;;;16.77;3.08;;;4.70;99.90;;;;;;5077256;28;20197;-65
2023/12/22 00:51:22;;;;;;;9.93;2.83;;;4.70;99.90;;;;;;5076946;28;20221;-64
2023/12/22 00:53:49;;;;;;;8.98;2.63;;;4.70;99.90;;;;;;5077005;28;20201;-66
2023/12/22 00:56:16;;;;;;;15.43;3.05;;;4.70;99.90;;;;;;5076777;28;20235;-65
2023/12/22 00:58:42;;;;;;;17.00;4.07;;;4.70;99.90;;;;;;5076649;28;20229;-65
2023/12/22 01:01:09;;;;;;;13.38;3.00;;;4.70;99.90;;;;;;5076366;28;20243;-66
2023/12/22 01:03:37;;;;;;;12.10;3.55;;;4.70;99.90;;;;;;5076629;28;20185;-65
2023/12/22 01:06:04;;;;;;;11.77;2.88;;;4.70;99.90;;;;;;5076951;28;20205;-66
2023/12/22 01:08:31;;;;;;;12.98;3.20;;;4.70;99.90;;;;;;5076587;28;20200;-66
2023/12/22 01:10:58;;;;;;;14.88;3.08;;;4.70;99.90;;;;;;5076437;28;20196;-66
2023/12/22 01:13:25;;;;;;;9.10;2.58;;;4.60;99.90;;;;;;5076210;28;20201;-66
2023/12/22 01:15:51;;;;;;;12.27;2.97;;;4.60;99.90;;;;;;5076163;28;20201;-66
2023/12/22 01:18:18;;;;;;;13.35;4.28;;;4.60;99.90;;;;;;5076456;28;20221;-66
2023/12/22 01:20:46;;;;;;;14.75;2.90;;;4.60;99.90;;;;;;5076376;28;20201;-65
2023/12/22 01:23:13;;;;;;;7.80;2.60;;;4.60;99.90;;;;;;5076093;28;20299;-66
2023/12/22 01:25:40;;;;;;;10.77;3.35;;;4.60;99.90;;;;;;5076064;28;20207;-66
2023/12/22 01:28:07;;;;;;;10.02;3.47;;;4.60;99.90;;;;;;5076350;28;20298;-65
2023/12/22 01:30:34;;;;;;;13.35;3.38;;;4.60;99.90;;;;;;5076160;28;20212;-65
2023/12/22 01:33:00;;;;;;;15.73;3.45;;;4.50;99.90;;;;;;5076086;28;20221;-65
2023/12/22 01:35:28;;;;;;;12.57;2.78;;;4.50;99.90;;;;;;5075920;28;20227;-65
2023/12/22 01:37:56;;;;;;;10.65;3.08;;;4.50;99.90;;;;;;5075993;28;20310;-66
2023/12/22 01:40:23;;;;;;;7.88;2.65;;;4.50;99.90;;;;;;5075098;28;20237;-66
2023/12/22 01:42:50;;;;;;;19.70;3.20;;;4.50;99.90;;;;;;5075889;28;20229;-65
2023/12/22 01:45:17;;;;;;;13.30;2.60;;;4.40;99.90;;;;;;5076070;28;20201;-65
2023/12/22 01:47:45;;;;;;;11.73;3.00;;;4.30;99.90;;;;;;5076057;28;20201;-66
2023/12/22 01:50:13;;;;;;;16.85;3.13;;;4.30;99.90;;;;;;5075964;28;20201;-65
2023/12/22 01:52:42;;;;;;;9.93;2.55;;;4.20;99.90;;;;;;5076401;28;20221;-65
2023/12/22 01:55:12;;;;;;;6.75;2.70;;;4.00;99.90;;;;;;5077330;28;20549;-64
2023/12/22 01:57:40;;;;;;;9.20;3.03;;;3.90;99.90;;;;;;5076013;28;20221;-66
2023/12/22 02:00:08;;;;;;;15.98;3.63;;;3.80;99.90;;;;;;5076365;28;20209;-65
2023/12/22 02:02:34;;;;;;;13.25;3.05;;;3.70;99.90;;;;;;5076254;28;20232;-65
2023/12/22 02:05:01;;;;;;;13.50;2.60;;;3.60;99.90;;;;;;5076210;28;20287;-65
2023/12/22 02:07:28;;;;;;;6.97;1.45;;;3.60;99.90;;;;;;5077083;28;20435;-63
2023/12/22 02:09:55;;;;;;;17.00;2.85;;;3.60;99.90;;;;;;5076872;28;20197;-66
2023/12/22 02:12:23;;;;;;;13.48;2.80;;;3.70;99.90;;;;;;5077120;28;20225;-65
2023/12/22 02:14:50;;;;;;;10.27;2.15;;;3.70;99.90;;;;;;5075644;28;20207;-64
2023/12/22 02:17:22;;;;;;;15.25;2.80;;;3.80;99.90;;;;;;5075592;28;20211;-64
2023/12/22 02:19:49;;;;;;;12.23;3.35;;;3.80;99.90;;;;;;5075781;28;20190;-64
2023/12/22 02:22:16;;;;;;;8.82;2.13;;;3.90;99.90;;;;;;5075198;28;20227;-64
2023/12/22 02:24:44;;;;;;;16.13;2.92;;;3.90;99.90;;;;;;5075600;28;20376;-64
2023/12/22 02:27:18;;;;;;;9.57;2.22;;;4.00;99.90;;;;;;5075276;28;20201;-65
2023/12/22 02:29:49;;;;;;;5.40;2.40;;;4.00;99.90;;;;;;5075238;28;20185;-64
2023/12/22 02:32:22;;;;;;;5.15;2.38;;;4.00;99.90;;;;;;5075178;28;20229;-65
2023/12/22 02:34:51;;;;;;;5.65;2.00;;;4.10;99.90;;;;;;5075442;28;20262;-64
2023/12/22 02:37:20;;;;;;;6.70;2.05;;;4.10;99.90;;;;;;5075198;28;20203;-65
2023/12/22 02:39:48;;;;;;;8.35;2.17;;;4.10;99.90;;;;;;5074737;28;20627;-65
2023/12/22 02:42:15;;;;;;;7.90;1.77;;;4.10;99.90;;;;;;5074565;28;20726;-66
2023/12/22 02:44:42;;;;;;;8.30;2.03;;;4.00;99.90;;;;;;5074569;28;20573;-65
2023/12/22 02:47:09;;;;;;;9.13;2.10;;;3.90;99.90;;;;;;5074511;28;20600;-65
2023/12/22 02:49:35;;;;;;;7.93;1.50;;;3.70;99.90;;;;;;5074361;28;20573;-64
2023/12/22 02:52:02;;;;;;;5.75;1.42;;;3.60;99.90;;;;;;5073237;28;20728;-65
2023/12/22 02:54:31;;;;;;;6.15;1.70;;;3.60;99.90;;;;;;5074271;28;20209;-64
2023/12/22 02:57:00;;;;;;;5.75;1.67;;;3.50;99.90;;;;;;5077156;28;20201;-65
2023/12/22 02:59:28;;;;;;;2.15;1.40;;;3.50;99.90;;;;;;5076618;28;20221;-65
2023/12/22 03:01:55;;;;;;;9.93;1.92;;;3.50;99.90;;;;;;5077553;28;20232;-65
2023/12/22 03:04:21;;;;;;;5.88;1.88;;;3.60;99.90;;;;;;5078807;28;20211;-65
2023/12/22 03:06:48;;;;;;;4.10;1.58;;;3.60;99.90;;;;;;5077306;28;20205;-65
2023/12/22 03:09:15;;;;;;;13.18;1.67;;;3.60;99.90;;;;;;5076232;28;20196;-65
2023/12/22 03:11:42;;;;;;;4.43;1.52;;;3.70;99.90;;;;;;5075179;28;20231;-64
2023/12/22 03:14:10;;;;;;;3.17;1.48;;;3.70;99.90;;;;;;5075378;28;20205;-64
2023/12/22 03:16:37;;;;;;;3.00;1.00;;;3.70;99.90;;;;;;5074181;28;20220;-64
2023/12/22 03:19:03;;;;;;;7.90;1.75;;;3.70;99.90;;;;;;5074270;28;20227;-64
2023/12/22 03:21:30;;;;;;;6.82;1.65;;;3.70;99.90;;;;;;5074378;28;20217;-64
2023/12/22 03:23:57;;;;;;;7.82;1.67;;;3.80;99.90;;;;;;5074091;28;20201;-64
2023/12/22 03:26:23;;;;;;;9.35;2.35;;;3.80;99.90;;;;;;5073960;28;20201;-63
2023/12/22 03:28:50;;;;;;;12.55;2.85;;;3.80;99.90;;;;;;5073946;28;20200;-65
2023/12/22 03:31:18;;;;;;;7.43;2.05;;;3.80;99.90;;;;;;5073690;28;20225;-66
2023/12/22 03:33:45;;;;;;;5.03;1.75;;;3.80;99.90;;;;;;5073384;28;20200;-65
2023/12/22 03:36:12;;;;;;;6.90;2.25;;;3.80;99.90;;;;;;5073633;28;20578;-65
2023/12/22 03:38:39;;;;;;;7.80;2.25;;;3.90;99.90;;;;;;5073361;28;20223;-65
2023/12/22 03:41:05;;;;;;;8.88;1.95;;;3.90;99.90;;;;;;5073414;28;20197;-66
2023/12/22 03:43:33;;;;;;;6.88;2.05;;;3.90;99.90;;;;;;5073364;28;20212;-65
2023/12/22 03:45:59;;;;;;;5.60;2.00;;;3.90;99.90;;;;;;5073127;28;20295;-65
2023/12/22 03:48:27;;;;;;;5.75;2.97;;;4.00;99.90;;;;;;5073272;28;20197;-65
2023/12/22 03:50:54;;;;;;;8.98;2.83;;;4.00;99.90;;;;;;5073253;28;20209;-65
2023/12/22 03:53:21;;;;;;;14.75;2.70;;;4.00;99.90;;;;;;5073300;28;20208;-64
2023/12/22 03:55:48;;;;;;;6.13;2.55;;;3.90;99.90;;;;;;5073171;28;20204;-65
2023/12/22 03:58:14;;;;;;;15.35;2.70;;;3.90;99.90;;;;;;5072944;28;20235;-65
2023/12/22 04:00:41;;;;;;;7.80;1.75;;;3.90;99.90;;;;;;5072993;28;20201;-65
2023/12/22 04:03:08;;;;;;;11.68;2.38;;;3.80;99.90;;;;;;5072239;28;20228;-64
2023/12/22 04:05:36;;;;;;;7.95;2.50;;;3.80;99.90;;;;;;5072768;28;20569;-66
2023/12/22 04:08:03;;;;;;;14.77;2.67;;;3.80;99.90;;;;;;5072821;28;20675;-65
2023/12/22 04:12:49;;;;;;;7.07;2.08;;;3.70;99.90;;;;;;5090833;27;20569;-65
2023/12/22 04:15:15;;;;;;;6.53;2.25;;;3.50;99.90;;;;;;5091151;28;20666;-65
2023/12/22 04:17:42;;;;;;;8.27;2.33;;;3.40;99.90;;;;;;5091415;28;20211;-64
2023/12/22 04:20:09;;;;;;;8.43;2.90;;;3.30;99.90;;;;;;5091005;28;20210;-64
2023/12/22 04:25:01;;;;;;;7.77;2.17;;;3.40;99.90;;;;;;5088553;22;20729;-63
2023/12/22 04:27:28;;;;;;;9.63;2.95;;;3.50;99.90;;;;;;5070625;28;20197;-62
2023/12/22 04:29:56;;;;;;;6.25;2.53;;;3.50;99.90;;;;;;5070475;28;20296;-63
2023/12/22 04:32:23;;;;;;;12.02;3.45;;;3.60;99.90;;;;;;5070380;28;20225;-63
2023/12/22 04:34:50;;;;;;;11.63;3.55;;;3.60;99.90;;;;;;5070382;28;20221;-62
2023/12/22 04:37:16;;;;;;;16.15;3.58;;;3.60;99.90;;;;;;5069864;28;20197;-62
2023/12/22 04:39:43;;;;;;;13.07;3.35;;;3.60;99.90;;;;;;5070130;28;20201;-63
2023/12/22 04:42:10;;;;;;;11.15;3.70;;;3.60;99.90;;;;;;5070092;28;20201;-63
2023/12/22 04:44:37;;;;;;;10.38;2.85;;;3.60;99.90;;;;;;5070003;28;20227;-64
2023/12/22 04:47:05;;;;;;;7.72;2.72;;;3.60;99.90;;;;;;5070109;28;20216;-62
2023/12/22 04:49:32;;;;;;;15.27;3.38;;;3.50;99.90;;;;;;5070077;28;20208;-62
2023/12/22 04:51:59;;;;;;;10.93;2.70;;;3.50;99.90;;;;;;5070115;28;20223;-63
2023/12/22 04:54:26;;;;;;;12.80;2.55;;;3.50;99.90;;;;;;5069102;28;20221;-61
2023/12/22 04:56:52;;;;;;;9.05;2.22;;;3.50;99.90;;;;;;5069493;28;20252;-62
2023/12/22 04:59:19;;;;;;;8.23;2.70;;;3.40;99.90;;;;;;5070139;28;20205;-62
2023/12/22 05:01:46;;;;;;;9.75;2.00;;;3.30;99.90;;;;;;5092273;22;20229;-65
2023/12/22 05:04:14;;;;;;;10.75;2.33;;;3.30;99.90;;;;;;5092351;28;20553;-66
2023/12/22 05:06:41;;;;;;;7.47;2.30;;;3.30;99.90;;;;;;5090863;28;20200;-66
2023/12/22 05:09:08;;;;;;;11.70;2.53;;;3.30;99.90;;;;;;5090253;28;20581;-64
2023/12/22 05:11:34;;;;;;;16.58;3.60;;;3.30;99.90;;;;;;5091530;28;20520;-64
2023/12/22 05:14:01;;;;;;;14.57;2.70;;;3.30;99.90;;;;;;5092169;28;20580;-65
2023/12/22 05:16:29;;;;;;;11.60;2.67;;;3.40;99.90;;;;;;5091662;28;20230;-65
2023/12/22 05:18:56;;;;;;;6.78;2.00;;;3.40;99.90;;;;;;5090447;28;20250;-66
2023/12/22 05:21:24;;;;;;;11.32;3.70;;;3.40;99.90;;;;;;5089897;28;20213;-65
2023/12/22 05:23:51;;;;;;;14.57;3.17;;;3.40;99.90;;;;;;5077835;28;20678;-65
2023/12/22 05:26:18;;;;;;;5.85;2.60;;;3.40;99.90;;;;;;5076321;28;20197;-65
2023/12/22 05:28:45;;;;;;;10.63;2.35;;;3.40;99.90;;;;;;5076411;28;20197;-66
2023/12/22 05:31:12;;;;;;;16.23;3.00;;;3.50;99.90;;;;;;5075927;28;20225;-65
2023/12/22 05:33:39;;;;;;;4.22;2.00;;;3.60;99.90;;;;;;5075992;28;20205;-65
2023/12/22 05:36:07;;;;;;;6.57;1.92;;;3.70;99.90;;;;;;5076278;28;20197;-64
2023/12/22 05:38:38;;;;;;;9.23;2.40;;;3.70;99.90;;;;;;5075922;28;20280;-64
2023/12/22 05:41:05;;;;;;;7.93;3.00;;;3.80;99.90;;;;;;5076168;28;20241;-65
2023/12/22 05:43:31;;;;;;;8.00;2.10;;;3.80;99.90;;;;;;5075674;28;20207;-66
2023/12/22 05:45:58;;;;;;;8.20;1.73;;;3.70;99.90;;;;;;5075933;28;20207;-65
2023/12/22 05:48:25;;;;;;;10.18;2.50;;;3.70;99.90;;;;;;5075804;28;20212;-65
2023/12/22 05:50:52;;;;;;;12.93;2.83;;;3.70;99.90;;;;;;5076181;28;20197;-66
2023/12/22 05:53:19;;;;;;;7.40;2.58;;;3.70;99.90;;;;;;5075825;28;20209;-65
2023/12/22 05:55:47;;;;;;;6.10;1.80;;;3.70;99.90;;;;;;5076014;28;20236;-66
2023/12/22 05:58:15;;;;;;;8.07;2.40;;;3.80;99.90;;;;;;5075862;28;20236;-66
2023/12/22 06:00:42;;;;;;;9.57;2.50;;;3.90;99.90;;;;;;5076649;28;20205;-65
2023/12/22 06:03:09;;;;;;;12.60;2.78;;;3.90;99.90;;;;;;5076955;28;20216;-65
2023/12/22 06:05:36;;;;;;;6.97;2.38;;;4.00;99.90;;;;;;5078479;28;20272;-66
2023/12/22 06:08:02;;;;;;;6.93;1.90;;;4.00;99.90;;;;;;5078830;28;20201;-65
2023/12/22 06:10:29;;;;;;;7.18;2.75;;;4.00;99.90;;;;;;5078099;28;20288;-65
2023/12/22 06:12:58;;;;;;;6.72;2.70;;;4.00;99.90;;;;;;5076876;28;20224;-65
2023/12/22 06:15:25;;;;;;;10.98;2.28;;;4.10;99.90;;;;;;5076475;28;20571;-64
2023/12/22 06:17:52;;;;;;;8.32;2.40;;;4.00;99.90;;;;;;5084463;28;20280;-66
2023/12/22 06:20:18;;;;;;;7.07;2.40;;;4.10;99.90;;;;;;5079282;28;20260;-66
2023/12/22 06:22:45;;;;;;;13.07;3.40;;;4.00;99.90;;;;;;5077758;28;20217;-65
2023/12/22 06:25:12;;;;;;;5.88;2.25;;;4.10;99.90;;;;;;5079363;28;20216;-65
2023/12/22 06:27:39;;;;;;;5.50;1.73;;;4.10;99.90;;;;;;5080238;28;20211;-66
2023/12/22 06:30:08;;;;;;;8.00;1.50;;;4.10;99.90;;;;;;5079819;28;20213;-64
2023/12/22 06:32:39;;;;;;;5.10;1.40;;;3.80;99.90;;;;;;5081184;28;20225;-64
2023/12/22 06:35:07;;;;;;;4.10;1.23;;;3.50;99.90;;;;;;5083438;28;20207;-65
2023/12/22 06:37:33;;;;;;;4.55;1.13;;;3.30;99.90;;;;;;5086195;28;20205;-65
2023/12/22 06:40:00;;;;;;;8.05;1.75;;;3.10;99.90;;;;;;5088807;28;20203;-65
2023/12/22 06:42:27;;;;;;;1.40;0.93;;;2.90;99.90;;;;;;5087495;28;20227;-64
2023/12/22 06:44:54;;;;;;;4.90;1.20;;;2.90;99.90;;;;;;5087355;28;20300;-65
2023/12/22 06:47:22;;;;;;;1.63;1.00;;;2.80;99.90;;;;;;5085823;28;20209;-65
2023/12/22 06:49:49;;;;;;;4.05;1.30;;;2.80;99.90;;;;;;5084208;28;20211;-65
2023/12/22 06:52:15;;;;;;;2.80;1.20;;;2.80;99.90;;;;;;5085360;28;20232;-65
2023/12/22 06:54:43;;;;;;;4.13;1.00;;;2.80;99.90;;;;;;5087757;28;20201;-65
2023/12/22 06:57:10;;;;;;;7.70;2.53;;;2.80;99.90;;;;;;5083889;28;20227;-65
2023/12/22 06:59:37;;;;;;;2.47;0.93;;;2.90;99.90;;;;;;5086680;28;20204;-66
2023/12/22 07:02:04;;;;;;;2.47;0.90;;;2.90;99.90;;;;;;5084791;28;20221;-65
2023/12/22 07:04:32;;;;;;;5.20;1.80;;;2.90;99.90;;;;;;5082996;28;20288;-65
2023/12/22 07:06:59;;;;;;;4.55;1.42;;;3.00;99.90;;;;;;5081261;28;20212;-65
2023/12/22 07:09:32;;;;;;;2.58;0.90;;;2.90;99.90;;;;;;5080838;28;20698;-65
2023/12/22 07:11:59;;;;;;;5.05;1.60;;;3.00;99.90;;;;;;5083101;28;20231;-65
2023/12/22 07:14:26;;;;;;;4.88;1.50;;;3.00;99.90;;;;;;5078824;28;20207;-65
2023/12/22 07:16:53;;;;;;;6.40;1.48;;;3.00;99.90;;;;;;5079708;28;20205;-65
2023/12/22 07:19:19;;;;;;;9.50;2.45;;;3.00;99.90;;;;;;5081957;28;20674;-66
2023/12/22 07:21:48;;;;;;;5.85;2.38;;;3.00;99.90;;;;;;5081924;28;20217;-65
2023/12/22 07:24:15;;;;;;;5.60;1.48;;;3.10;99.90;;;;;;5083310;28;20211;-64
2023/12/22 07:26:44;;;;;;;7.75;2.28;;;3.10;99.90;;;;;;5085121;28;20227;-64
2023/12/22 07:29:10;;;;;;;11.77;3.55;;;3.20;99.90;;;;;;5084504;28;20224;-65
2023/12/22 07:31:37;;;;;;;6.40;2.40;;;3.30;99.90;;;;;;5076788;28;20323;-65
2023/12/22 07:34:04;;;;;;;8.88;2.60;;;3.40;99.90;;;;;;5077632;28;20227;-63
2023/12/22 07:36:31;;;;;;;6.65;2.28;;;3.50;99.90;;;;;;5089349;28;20671;-65
2023/12/22 07:39:00;;;;;;;8.15;1.85;;;3.40;99.90;;;;;;5089384;28;20260;-65
2023/12/22 07:41:27;;;;;;;9.20;2.15;;;3.30;99.90;;;;;;5090924;28;20236;-64
2023/12/22 07:43:54;;;;;;;9.27;1.88;;;3.20;99.90;;;;;;5090079;28;20205;-64
2023/12/22 07:46:21;;;;;;;4.85;2.35;;;3.20;99.90;;;;;;5089194;28;20273;-65
2023/12/22 07:48:48;;;;;;;11.77;3.03;;;3.20;99.90;;;;;;5088053;28;20201;-65
2023/12/22 07:51:15;;;;;;;11.98;2.90;;;3.20;99.90;;;;;;5087266;28;20284;-65
2023/12/22 07:53:42;;;;;;;14.23;2.92;;;3.30;99.90;;;;;;5087873;28;20243;-65
2023/12/22 07:56:11;;;;;;;9.88;2.13;;;3.40;99.90;;;;;;5086993;28;20223;-65
2023/12/22 07:58:38;;;;;;;8.20;2.40;;;3.50;99.90;;;;;;5087671;28;20371;-64
2023/12/22 08:01:06;;;;;;;7.63;2.22;;;3.60;99.90;;;;;;5085170;28;20225;-65
2023/12/22 08:03:33;;;;;;;14.38;3.60;;;3.60;99.90;;;;;;5078040;28;20185;-64
2023/12/22 08:06:00;;;;;;;6.93;2.42;;;3.70;99.90;;;;;;5075408;28;20208;-67
2023/12/22 08:08:27;;;;;;;8.27;2.65;;;3.70;99.90;;;;;;5075769;28;20303;-66
2023/12/22 08:10:53;;;;;;;12.65;3.10;;;3.80;99.90;;;;;;5076395;28;20205;-65
2023/12/22 08:13:22;;;;;;;10.82;2.95;;;3.90;99.90;;;;;;5075014;28;20213;-65
2023/12/22 08:15:49;;;;;;;20.45;5.15;;;4.00;99.90;;;;;;5075271;28;20197;-65
2023/12/22 08:18:15;;;;;;;9.40;3.10;;;4.10;99.90;;;;;;5074833;28;20205;-66
2023/12/22 08:20:42;;;;;;;12.15;3.20;;;4.20;99.90;;;;;;5075457;28;20224;-67
2023/12/22 08:23:12;;;;;;;12.98;3.63;;;4.30;99.90;;;;;;5074540;28;20197;-66
2023/12/22 08:25:40;;;;;;;13.95;3.78;;;4.40;99.90;;;;;;5074622;28;20201;-66
2023/12/22 08:28:07;;;;;;;17.48;3.78;;;4.40;99.90;;;;;;5074563;28;20254;-64
2023/12/22 08:30:35;;;;;;;23.88;4.97;;;4.50;99.90;;;;;;5074696;28;20200;-65
2023/12/22 08:33:02;;;;;;;6.88;3.13;;;4.50;99.90;;;;;;5074924;28;20235;-67
2023/12/22 08:35:29;;;;;;;16.70;3.53;;;4.60;99.90;;;;;;5073754;28;20251;-66
2023/12/22 08:37:55;;;;;;;11.35;4.05;;;4.60;99.90;;;;;;5074721;28;20209;-64
2023/12/22 08:40:25;;;;;;;11.00;3.20;;;4.70;99.90;;;;;;5076635;28;20205;-63
2023/12/22 08:42:54;;;;;;;12.55;3.05;;;4.70;99.90;;;;;;5076002;28;20263;-63
2023/12/22 08:45:21;;;;;;;7.30;2.72;;;4.80;99.90;;;;;;5074380;28;20251;-61
2023/12/22 08:47:49;;;;;;;9.90;3.00;;;4.80;99.90;;;;;;5074415;28;20617;-62
2023/12/22 08:50:16;;;;;;;14.65;3.00;;;4.90;99.90;;;;;;5074419;28;20223;-61
2023/12/22 08:52:43;;;;;;;16.58;3.85;;;4.90;99.90;;;;;;5074136;28;20236;-63
2023/12/22 08:55:10;;;;;;;7.13;1.65;;;5.00;99.90;;;;;;5073604;28;20197;-61
2023/12/22 08:57:37;;;;;;;12.75;2.67;;;5.10;99.90;;;;;;5074905;28;20568;-61
2023/12/22 09:00:04;;;;;;;13.50;3.05;;;4.90;99.90;;;;;;5077886;28;20204;-61
2023/12/22 09:02:31;;;;;;;14.77;2.97;;;4.70;99.90;;;;;;5077837;28;20251;-61
2023/12/22 09:04:59;;;;;;;14.02;3.30;;;4.60;99.90;;;;;;5078227;28;20211;-60
2023/12/22 09:07:26;;;;;;;10.07;3.08;;;4.60;99.90;;;;;;5078793;28;20239;-62
2023/12/22 09:09:52;;;;;;;11.52;3.45;;;4.70;99.90;;;;;;5078496;28;20197;-61
2023/12/22 09:12:19;;;;;;;7.90;3.05;;;4.70;99.90;;;;;;5078542;28;20593;-61
2023/12/22 09:14:46;;;;;;;19.30;3.45;;;4.80;99.90;;;;;;5078925;28;20572;-61
2023/12/22 09:17:13;;;;;;;11.15;4.13;;;4.90;99.90;;;;;;5084751;28;20216;-61
2023/12/22 09:19:40;;;;;;;14.82;3.03;;;5.10;99.90;;;;;;5083060;28;20564;-61
2023/12/22 09:22:08;;;;;;;11.13;3.28;;;5.30;99.90;;;;;;5076965;28;20278;-60
2023/12/22 09:24:34;;;;;;;14.80;3.90;;;5.40;99.90;;;;;;5077667;28;20216;-61
2023/12/22 09:27:02;;;;;;;12.43;2.83;;;5.50;99.90;;;;;;5078685;28;20207;-61
2023/12/22 09:29:29;;;;;;;14.85;3.60;;;5.50;99.90;;;;;;5078907;28;20201;-61
2023/12/22 09:31:56;;;;;;;8.48;2.97;;;5.70;99.90;;;;;;5077355;28;20220;-62
2023/12/22 09:34:23;;;;;;;5.18;2.40;;;5.80;99.90;;;;;;5077477;28;20233;-62
2023/12/22 09:36:50;;;;;;;9.77;2.63;;;5.90;99.90;;;;;;5077889;28;20219;-62
2023/12/22 09:39:18;;;;;;;10.30;2.88;;;6.00;99.90;;;;;;5078131;28;20201;-62
2023/12/22 09:41:49;;;;;;;8.45;2.88;;;6.00;99.90;;;;;;5078018;28;20228;-61
2023/12/22 09:44:20;;;;;;;12.18;1.80;;;6.10;99.90;;;;;;5078566;28;20185;-62
2023/12/22 09:46:48;;;;;;;7.95;2.35;;;6.10;99.90;;;;;;5078113;28;20621;-61
2023/12/22 09:49:16;;;;;;;7.20;2.05;;;6.10;99.90;;;;;;5076904;28;20674;-62
2023/12/22 09:51:44;;;;;;;5.45;2.13;;;6.10;99.90;;;;;;5077504;28;20724;-61
2023/12/22 09:54:12;;;;;;;9.65;3.05;;;6.10;99.90;;;;;;5077619;28;20252;-61
2023/12/22 09:56:42;;;;;;;7.82;1.92;;;6.00;99.90;;;;;;5077803;28;20237;-63
2023/12/22 09:59:12;;;;;;;4.97;1.63;;;5.90;99.90;;;;;;5077571;28;20258;-62
2023/12/22 10:01:40;;;;;;;4.03;0.90;;;5.90;99.90;;;;;;5077539;28;20236;-62
2023/12/22 10:04:07;;;;;;;4.10;1.40;;;5.90;99.90;;;;;;5077637;28;20690;-63
2023/12/22 10:06:33;;;;;;;8.43;2.00;;;5.80;99.90;;;;;;5076426;28;20211;-64
2023/12/22 10:09:01;;;;;;;3.97;1.42;;;5.80;99.90;;;;;;5076170;28;20674;-64
2023/12/22 10:11:30;;;;;;;3.90;1.35;;;5.80;99.90;;;;;;5077005;28;20224;-62
2023/12/22 10:14:00;;;;;;;7.32;1.98;;;5.80;99.90;;;;;;5077169;28;20217;-63
2023/12/22 10:16:27;;;;;;;4.65;1.45;;;5.80;99.90;;;;;;5076616;28;20572;-62
2023/12/22 10:18:55;;;;;;;5.75;1.58;;;5.80;99.90;;;;;;5077025;28;20275;-63
2023/12/22 10:21:23;;;;;;;5.82;1.70;;;5.80;99.90;;;;;;5078261;28;20232;-63
2023/12/22 10:23:49;;;;;;;8.13;3.28;;;5.70;99.90;;;;;;5076608;28;20205;-63
2023/12/22 10:26:17;;;;;;;6.05;2.83;;;5.70;99.90;;;;;;5076310;28;20205;-62
2023/12/22 10:28:44;;;;;;;9.02;1.80;;;5.70;99.90;;;;;;5076845;28;20198;-62
2023/12/22 10:31:12;;;;;;;10.30;2.65;;;5.60;99.90;;;;;;5077098;28;20224;-62
2023/12/22 10:33:39;;;;;;;12.18;1.70;;;5.40;99.90;;;;;;5076734;28;20577;-63
2023/12/22 10:36:08;;;;;;;3.45;1.45;;;5.20;99.90;;;;;;5077403;28;20258;-61
2023/12/22 10:38:35;;;;;;;11.40;2.90;;;5.00;99.90;;;;;;5078502;28;20215;-63
2023/12/22 10:41:02;;;;;;;6.03;1.92;;;4.90;99.90;;;;;;5078093;28;20221;-65
2023/12/22 10:43:29;;;;;;;8.65;2.55;;;4.80;99.90;;;;;;5077724;28;20197;-62
2023/12/22 10:45:56;;;;;;;10.70;2.13;;;4.80;99.90;;;;;;5078490;28;20227;-62
2023/12/22 10:48:25;;;;;;;10.88;2.35;;;4.70;99.90;;;;;;5078989;28;20205;-64
2023/12/22 10:50:52;;;;;;;6.30;2.00;;;4.70;99.90;;;;;;5086409;28;20208;-64
2023/12/22 10:53:20;;;;;;;9.38;3.10;;;4.60;99.90;;;;;;5084221;28;20240;-63
2023/12/22 10:55:50;;;;;;;6.78;3.13;;;4.60;99.90;;;;;;5086106;28;20231;-63
2023/12/22 10:58:17;;;;;;;13.65;2.83;;;4.60;99.90;;;;;;5085621;28;20204;-62
2023/12/22 11:00:46;;;;;;;10.07;3.00;;;4.70;99.90;;;;;;5083420;28;20201;-63
2023/12/22 11:03:17;;;;;;;10.90;3.17;;;4.70;99.90;;;;;;5087296;28;20216;-62
2023/12/22 11:05:47;;;;;;;10.88;2.97;;;4.70;99.90;;;;;;5085383;28;20249;-63
2023/12/22 11:08:15;;;;;;;11.23;3.47;;;4.70;99.90;;;;;;5077891;28;20201;-63
2023/12/22 11:10:43;;;;;;;15.65;3.15;;;4.80;99.90;;;;;;5078104;28;20201;-63
2023/12/22 11:13:11;;;;;;;7.30;2.50;;;4.80;99.90;;;;;;5078756;28;20221;-64
2023/12/22 11:15:40;;;;;;;8.25;2.50;;;4.80;99.90;;;;;;5079876;28;20223;-63
2023/12/22 11:18:08;;;;;;;7.63;2.80;;;4.80;99.90;;;;;;5079332;28;20204;-62
2023/12/22 11:20:36;;;;;;;13.38;2.78;;;4.90;99.90;;;;;;5075487;28;20598;-63
2023/12/22 11:23:06;;;;;;;14.50;3.42;;;4.90;99.90;;;;;;5077219;28;20243;-63
2023/12/22 11:25:33;;;;;;;8.55;2.20;;;5.00;99.90;;;;;;5076408;28;20237;-65
2023/12/22 11:28:01;;;;;;;4.47;2.20;;;5.10;99.90;;;;;;5075551;28;20224;-62
2023/12/22 11:30:29;;;;;;;8.55;2.67;;;5.20;99.90;;;;;;5076024;28;20663;-63
2023/12/22 11:32:58;;;;;;;10.32;2.60;;;5.40;99.90;;;;;;5074993;28;20228;-63
2023/12/22 11:35:25;;;;;;;8.57;2.63;;;5.50;99.90;;;;;;5075994;28;20293;-62
2023/12/22 11:37:53;;;;;;;9.40;2.70;;;5.50;99.90;;;;;;5075575;28;20208;-63
2023/12/22 11:40:22;;;;;;;8.13;2.15;;;5.60;99.90;;;;;;5075816;28;20207;-63
2023/12/22 11:42:51;;;;;;;9.50;2.85;;;5.60;99.90;;;;;;5075261;28;20722;-64
2023/12/22 11:45:19;;;;;;;9.43;2.50;;;5.60;99.90;;;;;;5076433;28;20203;-64
2023/12/22 11:47:46;;;;;;;13.18;2.88;;;5.60;99.90;;;;;;5076204;28;20200;-62
2023/12/22 11:50:28;;;;;;;7.25;2.22;;;5.70;99.90;;;;;;5075991;28;20208;-63
2023/12/22 11:52:55;;;;;;;9.48;2.63;;;5.70;99.90;;;;;;5076035;28;20307;-63
2023/12/22 11:55:59;;;;;;;8.65;2.30;;;5.80;99.90;;;;;;5076499;28;20227;-63
2023/12/22 11:58:39;;;;;;;7.57;2.13;;;5.90;99.90;;;;;;5076624;28;20211;-62
2023/12/22 12:01:08;;;;;;;9.13;1.98;;;6.00;99.90;;;;;;5074685;28;20233;-63
2023/12/22 12:03:39;;;;;;;11.10;2.17;;;6.10;99.90;;;;;;5075613;28;20192;-63
2023/12/22 12:06:33;;;;;;;9.55;2.45;;;6.10;99.90;;;;;;5075607;28;20193;-63
2023/12/22 12:09:03;;;;;;;11.18;2.60;;;6.20;99.90;;;;;;5073566;28;20572;-62
2023/12/22 12:12:07;;;;;;;10.55;2.40;;;6.20;99.90;;;;;;5075560;28;20690;-63
2023/12/22 12:14:42;;;;;;;6.93;1.90;;;6.30;99.90;;;;;;5074559;28;20259;-62
2023/12/22 12:17:10;;;;;;;6.45;2.55;;;6.30;99.90;;;;;;5074775;28;20272;-63
2023/12/22 12:19:39;;;;;;;8.35;1.92;;;6.30;99.90;;;;;;5074308;28;20268;-63
2023/12/22 12:22:07;;;;;;;9.85;2.50;;;6.30;99.90;;;;;;5074852;28;20225;-62
2023/12/22 12:24:33;;;;;;;9.85;2.40;;;6.20;99.90;;;;;;5074578;28;20200;-63
2023/12/22 12:27:00;;;;;;;10.93;3.05;;;6.20;99.90;;;;;;5074474;28;20663;-63
2023/12/22 12:29:28;;;;;;;10.00;3.25;;;6.20;99.90;;;;;;5075297;28;20203;-63
2023/12/22 12:32:04;;;;;;;8.73;1.90;;;6.10;99.90;;;;;;5073776;28;20217;-65
2023/12/22 12:34:31;;;;;;;3.83;2.22;;;6.10;99.90;;;;;;5078346;28;20208;-64
2023/12/22 12:36:58;;;;;;;8.93;2.60;;;6.10;99.90;;;;;;5078733;28;20204;-64
2023/12/22 12:39:29;;;;;;;7.85;2.60;;;6.00;99.90;;;;;;5078642;28;20208;-63
2023/12/22 12:41:56;;;;;;;9.05;1.90;;;6.00;99.90;;;;;;5078283;28;20248;-63
2023/12/22 12:44:24;;;;;;;3.60;1.55;;;6.00;99.90;;;;;;5078174;28;20197;-62
2023/12/22 12:46:51;;;;;;;9.63;2.47;;;6.10;99.90;;;;;;5078003;28;20640;-63
2023/12/22 12:49:20;;;;;;;8.40;2.25;;;6.10;99.90;;;;;;5078098;28;20201;-63
2023/12/22 12:51:49;;;;;;;3.30;0.95;;;6.20;99.90;;;;;;5078283;28;20311;-65
2023/12/22 12:54:16;;;;;;;5.80;2.33;;;6.20;99.90;;;;;;5078052;28;20221;-63
2023/12/22 12:56:44;;;;;;;9.07;1.77;;;6.30;99.90;;;;;;5078736;28;20211;-64
2023/12/22 12:59:13;;;;;;;4.90;1.83;;;6.30;99.90;;;;;;5076626;28;20200;-64
2023/12/22 13:01:40;;;;;;;13.38;2.20;;;6.40;99.90;;;;;;5077004;28;20232;-64